Time;durP1;ratioP1;P1;durP2;ratioP2;P2;SDS_P1;SDS_P2;PMS_P1;PMS_P2;Temp;Humidity;BMP_temperature;BMP_pressure;BME280_temperature;BME280_humidity;BME280_pressure;Samples;Min_cycle;Max_cycle;Signal;HPM_P1;HPM_P2
2023/02/02 00:01:10;;;;;;;;;;;;;;;-144.99;84.51;52529.63;5029870;28;19955;-71
2023/02/02 00:03:38;;;;;;;;;;;;;;;-144.99;84.41;52558.16;5034806;28;20073;-69
2023/02/02 00:06:05;;;;;;;;;;;;;;;-144.99;84.34;52562.25;5031238;28;19994;-69
2023/02/02 00:08:31;;;;;;;;;;;;;;;-144.99;85.58;52582.63;5026976;28;20139;-68
2023/02/02 00:10:58;;;;;;;;;;;;;;;-144.99;85.59;52533.69;5028223;28;20003;-68
2023/02/02 00:13:24;;;;;;;;;;;;;;;-144.99;85.68;52562.25;5034407;28;19971;-69
2023/02/02 00:15:52;;;;;;;;;;;;;;;-144.99;85.97;52525.56;5033905;28;20035;-68
2023/02/02 00:18:20;;;;;;;;;;;;;;;-144.99;86.34;52552.03;5024491;28;20098;-68
2023/02/02 00:20:48;;;;;;;;;;;;;;;-144.99;86.58;52586.69;5025762;28;20069;-68
2023/02/02 00:23:14;;;;;;;;;;;;;;;-144.99;86.37;52519.44;5030471;28;19935;-68
2023/02/02 00:25:41;;;;;;;;;;;;;;;-144.99;86.79;52545.94;5035102;28;19933;-70
2023/02/02 00:28:07;;;;;;;;;;;;;;;-144.99;87.81;52566.31;5024843;28;20436;-69
2023/02/02 00:30:34;;;;;;;;;;;;;;;-144.99;86.07;52541.84;5022392;28;20006;-68
2023/02/02 00:33:00;;;;;;;;;;;;;;;-144.99;86.23;52545.94;5029809;28;20375;-69
2023/02/02 00:35:28;;;;;;;;;;;;;;;-144.99;86.12;52529.63;5021828;28;19960;-73
2023/02/02 00:37:55;;;;;;;;;;;;;;;-144.99;86.23;52547.97;5036663;28;19941;-73
2023/02/02 00:40:21;;;;;;;;;;;;;;;-144.99;86.77;52545.94;5023526;28;19969;-75
2023/02/02 00:42:49;;;;;;;;;;;;;;;-144.99;86.77;52586.69;5026857;28;19956;-72
2023/02/02 00:45:15;;;;;;;;;;;;;;;-144.99;87.25;52578.53;5030544;28;19974;-74
2023/02/02 00:47:41;;;;;;;;;;;;;;;-144.99;87.53;52582.63;5037312;28;19925;-74
2023/02/02 00:50:09;;;;;;;;;;;;;;;-144.99;87.09;52529.63;5031485;28;19925;-74
2023/02/02 00:52:36;;;;;;;;;;;;;;;-144.99;86.87;52590.78;5029331;28;19956;-74
2023/02/02 00:55:03;;;;;;;;;;;;;;;-144.99;86.55;52513.31;5032731;28;19956;-75
2023/02/02 00:57:30;;;;;;;;;;;;;;;-144.99;87.55;52566.31;5032574;28;19940;-75
2023/02/02 00:59:56;;;;;;;;;;;;;;;-144.99;87.33;52590.78;5036249;28;19963;-76
2023/02/02 01:02:23;;;;;;;;;;;;;;;-144.99;87.05;52554.09;5029869;28;20038;-75
2023/02/02 01:04:49;;;;;;;;;;;;;;;-144.99;86.97;52550.00;5026795;28;20500;-75
2023/02/02 01:07:16;;;;;;;;;;;;;;;-144.99;87.50;52545.94;5036190;28;20333;-74
2023/02/02 01:09:44;;;;;;;;;;;;;;;-144.99;87.65;52562.25;5037307;28;19925;-75
2023/02/02 01:12:10;;;;;;;;;;;;;;;-144.99;88.11;52550.00;5020732;28;20115;-75
2023/02/02 01:14:37;;;;;;;;;;;;;;;-144.99;89.26;52556.13;5018945;28;19943;-74
2023/02/02 01:17:04;;;;;;;;;;;;;;;-144.99;89.58;52582.63;5033402;28;20047;-73
2023/02/02 01:19:31;;;;;;;;;;;;;;;-144.99;88.23;52509.25;5032058;28;19956;-72
2023/02/02 01:21:57;;;;;;;;;;;;;;;-144.99;88.41;52541.84;5028840;28;20056;-74
2023/02/02 01:24:24;;;;;;;;;;;;;;;-144.99;88.47;52529.63;5026455;28;20116;-70
2023/02/02 01:26:52;;;;;;;;;;;;;;;-144.99;88.56;52533.69;5035447;28;19971;-70
2023/02/02 01:29:18;;;;;;;;;;;;;;;-144.99;88.83;52533.69;5026501;28;20063;-71
2023/02/02 01:31:45;;;;;;;;;;;;;;;-144.99;88.35;52570.38;5024882;28;20330;-71
2023/02/02 01:34:11;;;;;;;;;;;;;;;-144.99;89.10;52545.94;5026229;28;19935;-72
2023/02/02 01:36:38;;;;;;;;;;;;;;;-144.99;89.27;52533.69;5023069;28;20024;-69
2023/02/02 01:39:05;;;;;;;;;;;;;;;-144.99;89.00;52529.63;5025713;28;19995;-70
2023/02/02 01:41:31;;;;;;;;;;;;;;;-144.99;89.50;52570.38;5027149;28;19936;-70
2023/02/02 01:44:00;;;;;;;;;;;;;;;-144.99;89.58;52566.31;5025185;28;20082;-67
2023/02/02 01:46:27;;;;;;;;;;;;;;;-144.99;90.07;52529.63;5031378;28;19964;-70
2023/02/02 01:48:58;;;;;;;;;;;;;;;-144.99;91.06;52570.38;5024840;28;20389;-70
2023/02/02 01:51:27;;;;;;;;;;;;;;;-144.99;90.57;52531.66;5022417;28;19990;-66
2023/02/02 01:53:55;;;;;;;;;;;;;;;-144.99;91.40;52539.81;5024269;28;19975;-66
2023/02/02 01:56:24;;;;;;;;;;;;;;;-144.99;90.89;52515.34;5027066;28;20324;-67
2023/02/02 01:58:51;;;;;;;;;;;;;;;-144.99;90.79;52533.69;5024154;28;20058;-66
2023/02/02 02:01:19;;;;;;;;;;;;;;;-144.99;91.32;52525.56;5024275;28;20730;-65
2023/02/02 02:03:45;;;;;;;;;;;;;;;-144.99;92.47;52545.94;5021322;28;20029;-65
2023/02/02 02:06:13;;;;;;;;;;;;;;;-144.99;91.86;52537.78;5021424;28;19974;-64
2023/02/02 02:08:42;;;;;;;;;;;;;;;-144.99;92.20;52552.03;5027528;28;20039;-64
2023/02/02 02:11:08;;;;;;;;;;;;;;;-144.99;92.33;52572.44;5027364;28;20002;-64
2023/02/02 02:16:25;;;;;;;;;;;;;;;-144.99;91.60;52558.16;5021604;28;20042;-65
2023/02/02 02:19:09;;;;;;;;;;;;;;;-144.99;91.84;52554.09;5034572;28;20059;-63
2023/02/02 02:27:38;;;;;;;;;;;;;;;-144.99;92.55;52550.00;5039545;28;19942;-68
2023/02/02 02:30:32;;;;;;;;;;;;;;;-144.99;92.01;52590.78;5025331;28;19990;-68
2023/02/02 02:33:02;;;;;;;;;;;;;;;-144.99;91.79;52545.94;5016615;28;20675;-68
2023/02/02 02:35:31;;;;;;;;;;;;;;;-144.99;90.97;52562.25;5027640;28;19986;-69
2023/02/02 02:38:00;;;;;;;;;;;;;;;-144.99;91.27;52541.84;5029518;28;19988;-68
2023/02/02 02:40:30;;;;;;;;;;;;;;;-144.99;91.70;52554.09;5023596;28;20005;-70
2023/02/02 02:42:59;;;;;;;;;;;;;;;-144.99;91.53;52550.00;5029467;28;20063;-70
2023/02/02 02:45:27;;;;;;;;;;;;;;;-144.99;91.54;52586.69;5031099;28;19989;-69
2023/02/02 02:47:54;;;;;;;;;;;;;;;-144.99;91.18;52550.00;5027828;28;20446;-69
2023/02/02 02:50:22;;;;;;;;;;;;;;;-144.99;90.86;52562.25;5029069;28;19952;-69
2023/02/02 02:52:52;;;;;;;;;;;;;;;-144.99;90.82;52533.69;5026700;28;19933;-69
2023/02/02 02:55:19;;;;;;;;;;;;;;;-144.99;90.32;52545.94;5029343;28;19938;-71
2023/02/02 02:58:03;;;;;;;;;;;;;;;-144.99;89.71;52541.84;5031629;28;19966;-72
2023/02/02 03:00:36;;;;;;;;;;;;;;;-144.99;89.37;52554.09;5029735;28;20405;-71
2023/02/02 03:03:07;;;;;;;;;;;;;;;-144.99;89.05;52547.97;5024938;28;20447;-68
2023/02/02 03:05:39;;;;;;;;;;;;;;;-144.99;88.56;52550.00;5024594;28;20032;-67
2023/02/02 03:08:09;;;;;;;;;;;;;;;-144.99;88.50;52521.47;5038744;22;19987;-65
2023/02/02 03:10:37;;;;;;;;;;;;;;;-144.99;88.17;52554.09;5029922;28;19951;-64
2023/02/02 03:13:07;;;;;;;;;;;;;;;-144.99;87.62;52521.47;5029064;28;19986;-64
2023/02/02 03:15:33;;;;;;;;;;;;;;;-144.99;87.86;52562.25;5022566;28;19935;-64
2023/02/02 03:18:00;;;;;;;;;;;;;;;-144.99;87.67;52543.91;5026040;28;19946;-67
2023/02/02 03:20:27;;;;;;;;;;;;;;;-144.99;88.11;52525.56;5025544;28;20005;-67
2023/02/02 03:22:55;;;;;;;;;;;;;;;-144.99;88.42;52554.09;5031038;28;19948;-67
2023/02/02 03:25:22;;;;;;;;;;;;;;;-144.99;89.07;52529.63;5030964;28;20021;-66
2023/02/02 03:27:49;;;;;;;;;;;;;;;-144.99;88.86;52564.28;5030082;28;19944;-67
2023/02/02 03:30:15;;;;;;;;;;;;;;;-144.99;89.00;52558.16;5030780;28;19996;-68
2023/02/02 03:32:42;;;;;;;;;;;;;;;-144.99;88.55;52529.63;5031015;28;20337;-68
2023/02/02 03:35:09;;;;;;;;;;;;;;;-144.99;88.73;52545.94;5028741;28;19939;-67
2023/02/02 03:37:36;;;;;;;;;;;;;;;-144.99;88.33;52525.56;5026114;28;20078;-67
2023/02/02 03:40:04;;;;;;;;;;;;;;;-144.99;88.59;52556.13;5031060;28;19990;-66
2023/02/02 03:42:31;;;;;;;;;;;;;;;-144.99;88.48;52566.31;5029975;28;20554;-68
2023/02/02 03:44:57;;;;;;;;;;;;;;;-144.99;88.13;52594.84;5029978;28;19945;-64
2023/02/02 03:47:24;;;;;;;;;;;;;;;-144.99;89.05;52562.25;5029696;28;20463;-64
2023/02/02 03:49:50;;;;;;;;;;;;;;;-144.99;89.54;52517.41;5027065;28;20029;-67
2023/02/02 03:52:17;;;;;;;;;;;;;;;-144.99;89.90;52572.44;5028164;28;19960;-65
2023/02/02 03:54:43;;;;;;;;;;;;;;;-144.99;89.51;52550.00;5029973;28;20040;-66
2023/02/02 03:57:11;;;;;;;;;;;;;;;-144.99;89.92;52566.31;5027982;28;20021;-66
2023/02/02 03:59:37;;;;;;;;;;;;;;;-144.99;90.09;52590.78;5029025;28;20014;-67
2023/02/02 04:02:04;;;;;;;;;;;;;;;-144.99;89.01;52558.16;5029087;28;19984;-68
2023/02/02 04:04:30;;;;;;;;;;;;;;;-144.99;90.26;52550.00;5028426;28;19933;-66
2023/02/02 04:06:58;;;;;;;;;;;;;;;-144.99;89.61;52594.84;5031693;28;20381;-66
2023/02/02 04:09:24;;;;;;;;;;;;;;;-144.99;89.81;52533.69;5025633;28;19962;-66
2023/02/02 04:11:51;;;;;;;;;;;;;;;-144.99;90.08;52545.94;5024150;28;20387;-67
2023/02/02 04:14:19;;;;;;;;;;;;;;;-144.99;90.14;52566.31;5024427;28;19944;-67
2023/02/02 04:16:45;;;;;;;;;;;;;;;-144.99;90.08;52570.38;5028957;28;19988;-65
2023/02/02 04:19:12;;;;;;;;;;;;;;;-144.99;89.64;52533.69;5024374;28;19955;-68
2023/02/02 04:21:39;;;;;;;;;;;;;;;-144.99;89.90;52541.84;5027963;28;20055;-68
2023/02/02 04:24:06;;;;;;;;;;;;;;;-144.99;89.23;52539.81;5029925;28;19938;-69
2023/02/02 04:26:33;;;;;;;;;;;;;;;-144.99;88.67;52558.16;5037260;28;19998;-66
2023/02/02 04:28:59;;;;;;;;;;;;;;;-144.99;87.86;52584.66;5025958;28;19979;-67
2023/02/02 04:31:28;;;;;;;;;;;;;;;-144.99;87.56;52543.91;5028825;28;19959;-65
2023/02/02 04:33:55;;;;;;;;;;;;;;;-144.99;87.54;52541.84;5030607;28;19951;-66
2023/02/02 04:36:21;;;;;;;;;;;;;;;-144.99;87.12;52533.69;5028070;28;20433;-65
2023/02/02 04:38:48;;;;;;;;;;;;;;;-144.99;86.67;52554.09;5029289;28;20456;-67
2023/02/02 04:41:15;;;;;;;;;;;;;;;-144.99;86.88;52582.63;5025480;28;20437;-66
2023/02/02 04:43:42;;;;;;;;;;;;;;;-144.99;86.63;52568.34;5030266;28;19979;-66
2023/02/02 04:46:08;;;;;;;;;;;;;;;-144.99;86.33;52523.50;5028207;28;19956;-65
2023/02/02 04:48:36;;;;;;;;;;;;;;;-144.99;86.05;52525.56;5026222;28;19956;-67
2023/02/02 04:51:04;;;;;;;;;;;;;;;-144.99;86.28;52586.69;5025006;28;20216;-65
2023/02/02 04:53:31;;;;;;;;;;;;;;;-144.99;87.58;52527.59;5029742;28;19938;-63
2023/02/02 04:55:58;;;;;;;;;;;;;;;-144.99;87.88;52566.31;5029538;28;20004;-65
2023/02/02 04:58:24;;;;;;;;;;;;;;;-144.99;87.99;52537.78;5029908;28;20317;-65
2023/02/02 05:00:51;;;;;;;;;;;;;;;-144.99;87.65;52570.38;5022346;28;20636;-65
2023/02/02 05:03:17;;;;;;;;;;;;;;;-144.99;87.44;52509.25;5025964;28;19929;-64
2023/02/02 05:05:45;;;;;;;;;;;;;;;-144.99;88.37;52598.94;5024322;28;19993;-67
2023/02/02 05:08:12;;;;;;;;;;;;;;;-144.99;88.63;52545.94;5024936;28;20269;-69
2023/02/02 05:10:39;;;;;;;;;;;;;;;-144.99;87.72;52537.78;5022523;28;20002;-67
2023/02/02 05:13:06;;;;;;;;;;;;;;;-144.99;87.66;52558.16;5022900;28;20051;-66
2023/02/02 05:15:32;;;;;;;;;;;;;;;-144.99;88.00;52541.84;5021691;28;19985;-66
2023/02/02 05:17:59;;;;;;;;;;;;;;;-144.99;87.98;52545.94;5024095;28;19980;-66
2023/02/02 05:20:25;;;;;;;;;;;;;;;-144.99;88.32;52558.16;5022695;28;19963;-67
2023/02/02 05:22:53;;;;;;;;;;;;;;;-144.99;88.54;52509.25;5022431;28;19948;-65
2023/02/02 05:25:20;;;;;;;;;;;;;;;-144.99;88.39;52550.00;5025969;28;20006;-64
2023/02/02 05:27:46;;;;;;;;;;;;;;;-144.99;88.07;52539.81;5023181;28;20483;-68
2023/02/02 05:30:13;;;;;;;;;;;;;;;-144.99;88.18;52554.09;5025988;28;19963;-67
2023/02/02 05:32:40;;;;;;;;;;;;;;;-144.99;90.51;52501.09;5026955;28;19983;-67
2023/02/02 05:35:07;;;;;;;;;;;;;;;-144.99;88.77;52525.56;5027860;28;20316;-68
2023/02/02 05:37:34;;;;;;;;;;;;;;;-144.99;90.41;52525.56;5024833;28;22323;-67
2023/02/02 05:40:02;;;;;;;;;;;;;;;-144.99;88.78;52545.94;5027229;28;20053;-67
2023/02/02 05:42:28;;;;;;;;;;;;;;;-144.99;88.72;52529.63;5026215;28;19940;-67
2023/02/02 05:44:55;;;;;;;;;;;;;;;-144.99;88.05;52533.69;5021887;28;19985;-67
2023/02/02 05:47:21;;;;;;;;;;;;;;;-144.99;87.81;52509.25;5028895;28;20027;-67
2023/02/02 05:49:49;;;;;;;;;;;;;;;-144.99;88.53;52570.38;5028489;28;20008;-66
2023/02/02 05:52:17;;;;;;;;;;;;;;;-144.99;88.39;52497.00;5028425;28;19994;-67
2023/02/02 05:54:44;;;;;;;;;;;;;;;-144.99;86.85;52501.09;5024789;28;20316;-66
2023/02/02 05:57:12;;;;;;;;;;;;;;;-144.99;87.24;52570.38;5025241;28;20376;-66
2023/02/02 05:59:39;;;;;;;;;;;;;;;-144.99;87.20;52501.09;5026665;28;20407;-67
2023/02/02 06:02:05;;;;;;;;;;;;;;;-144.99;87.37;52533.69;5026646;28;19976;-66
2023/02/02 06:04:32;;;;;;;;;;;;;;;-144.99;90.04;52541.84;5023282;28;19945;-66
2023/02/02 06:06:58;;;;;;;;;;;;;;;-144.99;89.51;52550.00;5024302;28;19940;-66
2023/02/02 06:09:25;;;;;;;;;;;;;;;-144.99;90.56;52562.25;5024487;28;19998;-65
2023/02/02 06:11:51;;;;;;;;;;;;;;;-144.99;88.51;52562.25;5022148;28;20372;-65
2023/02/02 06:14:19;;;;;;;;;;;;;;;-144.99;88.33;52541.84;5024602;28;20007;-65
2023/02/02 06:16:46;;;;;;;;;;;;;;;-144.99;87.53;52558.16;5023302;28;19971;-65
2023/02/02 06:19:12;;;;;;;;;;;;;;;-144.99;87.47;52550.00;5026063;28;20013;-66
2023/02/02 06:21:39;;;;;;;;;;;;;;;-144.99;87.79;52492.94;5027914;28;20013;-66
2023/02/02 06:24:06;;;;;;;;;;;;;;;-144.99;88.56;52566.31;5029920;28;20136;-66
2023/02/02 06:26:32;;;;;;;;;;;;;;;-144.99;87.69;52545.94;4676895;28;9999627;-66
2023/02/02 06:28:59;;;;;;;;;;;;;;;-144.99;87.99;52533.69;5025079;28;19950;-66
2023/02/02 06:31:27;;;;;;;;;;;;;;;-144.99;87.55;52564.28;5028308;28;20458;-66
2023/02/02 06:33:54;;;;;;;;;;;;;;;-144.99;86.80;52562.25;5028456;28;20386;-66
2023/02/02 06:36:20;;;;;;;;;;;;;;;-144.99;85.99;52570.38;5025878;28;19982;-65
2023/02/02 06:38:48;;;;;;;;;;;;;;;-144.99;85.25;52564.28;5029466;28;19945;-66
2023/02/02 06:41:15;;;;;;;;;;;;;;;-144.99;84.63;52562.25;5028225;28;19964;-66
2023/02/02 06:43:42;;;;;;;;;;;;;;;-144.99;84.32;52547.97;5027646;28;19995;-65
2023/02/02 06:46:08;;;;;;;;;;;;;;;-144.99;83.90;52545.94;5029445;28;19986;-65
2023/02/02 06:48:36;;;;;;;;;;;;;;;-144.99;83.52;52545.94;5026079;28;20029;-72
2023/02/02 06:51:04;;;;;;;;;;;;;;;-144.99;83.53;52537.78;5024410;28;19968;-72
2023/02/02 06:53:31;;;;;;;;;;;;;;;-144.99;83.37;52564.28;5030144;28;19925;-73
2023/02/02 06:55:59;;;;;;;;;;;;;;;-144.99;83.55;52578.53;5030067;28;19995;-73
2023/02/02 06:58:26;;;;;;;;;;;;;;;-144.99;84.46;52545.94;5029409;28;19959;-73
2023/02/02 07:00:52;;;;;;;;;;;;;;;-144.99;85.81;52529.63;5030025;28;20015;-72
2023/02/02 07:03:20;;;;;;;;;;;;;;;-144.99;85.89;52558.16;5037585;28;19945;-72
2023/02/02 07:05:48;;;;;;;;;;;;;;;-144.99;87.56;52537.78;5026094;28;20506;-72
2023/02/02 07:08:15;;;;;;;;;;;;;;;-144.99;87.31;52582.63;5026142;28;20362;-72
2023/02/02 07:10:43;;;;;;;;;;;;;;;-144.99;88.01;52558.16;5031690;28;20005;-72
2023/02/02 07:13:09;;;;;;;;;;;;;;;-144.99;87.81;52529.63;5029357;28;20183;-72
2023/02/02 07:15:38;;;;;;;;;;;;;;;-144.99;88.07;52586.69;5019307;28;19935;-72
2023/02/02 07:18:04;;;;;;;;;;;;;;;-144.99;88.04;52505.16;5023679;28;19986;-73
2023/02/02 07:20:31;;;;;;;;;;;;;;;-144.99;88.27;52556.13;5027635;28;20369;-72
2023/02/02 07:23:01;;;;;;;;;;;;;;;-144.99;88.23;52517.41;5028406;28;20034;-72
2023/02/02 07:25:27;;;;;;;;;;;;;;;-144.99;88.36;52517.41;5022200;28;19962;-68
2023/02/02 07:27:54;;;;;;;;;;;;;;;-144.99;87.84;52558.16;5030539;28;19943;-67
2023/02/02 07:30:21;;;;;;;;;;;;;;;-144.99;87.78;52521.47;5019291;28;19933;-68
2023/02/02 07:32:48;;;;;;;;;;;;;;;-144.99;87.66;52521.47;5024676;28;19945;-68
2023/02/02 07:35:15;;;;;;;;;;;;;;;-144.99;87.33;52541.84;5027999;28;20003;-68
2023/02/02 07:37:41;;;;;;;;;;;;;;;-144.99;87.39;52537.78;5027706;28;20027;-68
2023/02/02 07:40:10;;;;;;;;;;;;;;;-144.99;86.86;52562.25;5027936;28;22316;-68
2023/02/02 07:42:37;;;;;;;;;;;;;;;-144.99;86.60;52562.25;5034453;28;19959;-67
2023/02/02 07:45:05;;;;;;;;;;;;;;;-144.99;86.10;52521.47;5029435;28;19963;-69
2023/02/02 07:47:31;;;;;;;;;;;;;;;-144.99;85.81;52554.09;5029560;28;19943;-68
2023/02/02 07:49:58;;;;;;;;;;;;;;;-144.99;85.90;52529.63;5028467;28;20080;-68
2023/02/02 07:52:24;;;;;;;;;;;;;;;-144.99;85.65;52525.56;5028479;28;20422;-67
2023/02/02 07:54:51;;;;;;;;;;;;;;;-144.99;85.26;52525.56;5029481;28;20392;-69
2023/02/02 07:57:18;;;;;;;;;;;;;;;-144.99;85.28;52554.09;5028911;28;20040;-68
2023/02/02 07:59:45;;;;;;;;;;;;;;;-144.99;85.07;52529.63;5028266;28;20015;-68
2023/02/02 08:02:12;;;;;;;;;;;;;;;-144.99;85.14;52492.94;5028403;28;19955;-68
2023/02/02 08:04:38;;;;;;;;;;;;;;;-144.99;85.07;52505.16;5028676;28;20442;-68
2023/02/02 08:07:05;;;;;;;;;;;;;;;-144.99;84.62;52562.25;5032179;28;20126;-68
2023/02/02 08:09:31;;;;;;;;;;;;;;;-144.99;84.39;52521.47;5028256;28;20009;-67
2023/02/02 08:12:00;;;;;;;;;;;;;;;-144.99;84.13;52513.31;5028265;28;19929;-67
2023/02/02 08:14:28;;;;;;;;;;;;;;;-144.99;84.20;52558.16;5027704;28;20058;-67
2023/02/02 08:16:55;;;;;;;;;;;;;;;-144.99;83.80;52558.16;5028062;28;19945;-68
2023/02/02 08:19:22;;;;;;;;;;;;;;;-144.99;82.94;52525.56;5027705;28;19940;-68
2023/02/02 08:21:48;;;;;;;;;;;;;;;-144.99;82.33;52519.44;5027250;28;19937;-67
2023/02/02 08:24:15;;;;;;;;;;;;;;;-144.99;81.59;52521.47;5028055;28;20052;-67
2023/02/02 08:26:41;;;;;;;;;;;;;;;-144.99;80.33;52505.16;5027383;28;20001;-67
2023/02/02 08:29:08;;;;;;;;;;;;;;;-144.99;79.79;52488.84;5018980;28;20368;-67
2023/02/02 08:31:38;;;;;;;;;;;;;;;-144.99;79.32;52507.19;5026249;28;19932;-68
2023/02/02 08:34:05;;;;;;;;;;;;;;;-144.99;79.16;52533.69;5027854;28;19925;-67
2023/02/02 08:36:34;;;;;;;;;;;;;;;-144.99;79.25;52517.41;5026795;28;19941;-68
2023/02/02 08:39:01;;;;;;;;;;;;;;;-144.99;79.54;52486.81;5028037;28;19925;-68
2023/02/02 08:41:28;;;;;;;;;;;;;;;-144.99;78.72;52513.31;5027370;28;19971;-68
2023/02/02 08:43:54;;;;;;;;;;;;;;;-144.99;77.74;52488.84;5027798;28;19947;-67
2023/02/02 08:46:21;;;;;;;;;;;;;;;-144.99;76.85;52509.25;5027710;28;20420;-68
2023/02/02 08:48:49;;;;;;;;;;;;;;;-144.99;77.32;52554.09;5028152;28;19975;-68
2023/02/02 08:51:17;;;;;;;;;;;;;;;-144.99;76.81;52517.41;5027269;28;19955;-68
2023/02/02 08:53:44;;;;;;;;;;;;;;;-144.99;76.80;52476.63;5028567;28;20318;-66
2023/02/02 08:56:11;;;;;;;;;;;;;;;-144.99;75.37;52470.50;5029643;28;19955;-68
2023/02/02 08:58:38;;;;;;;;;;;;;;;-144.99;74.41;52488.84;5029019;28;19941;-67
2023/02/02 09:01:05;;;;;;;;;;;;;;;-144.99;73.25;52480.72;5029837;28;20055;-67
2023/02/02 09:03:32;;;;;;;;;;;;;;;-144.99;72.13;52484.78;5026928;28;19978;-69
2023/02/02 09:06:03;;;;;;;;;;;;;;;-144.99;71.87;52509.25;5026943;28;20012;-68
2023/02/02 09:08:37;;;;;;;;;;;;;;;-144.99;71.70;52509.25;5026581;28;20355;-68
2023/02/02 09:11:16;;;;;;;;;;;;;;;-144.99;71.74;52537.78;5031082;28;19967;-69
2023/02/02 09:13:44;;;;;;;;;;;;;;;-144.99;72.30;52490.91;5028609;28;20101;-68
2023/02/02 09:16:11;;;;;;;;;;;;;;;-144.99;72.00;52482.75;5027982;28;19945;-68
2023/02/02 09:18:38;;;;;;;;;;;;;;;-144.99;72.16;52456.25;5026569;28;19980;-68
2023/02/02 09:21:07;;;;;;;;;;;;;;;-144.99;71.64;52537.78;5025912;28;20001;-68
2023/02/02 09:23:34;;;;;;;;;;;;;;;-144.99;71.77;52476.63;5026331;28;20032;-68
2023/02/02 09:26:09;;;;;;;;;;;;;;;-144.99;71.23;52511.28;5032867;28;20013;-68
2023/02/02 09:28:35;;;;;;;;;;;;;;;-144.99;70.84;52484.78;5019334;28;19937;-69
2023/02/02 09:31:02;;;;;;;;;;;;;;;-144.99;69.19;52472.56;5025502;28;19999;-71
2023/02/02 09:33:29;;;;;;;;;;;;;;;-144.99;67.23;52456.25;5026072;28;19999;-70
2023/02/02 09:35:55;;;;;;;;;;;;;;;-144.99;64.85;52450.13;5025709;28;19993;-70
2023/02/02 09:38:23;;;;;;;;;;;;;;;-144.99;63.60;52494.97;5026048;28;20416;-69
2023/02/02 09:40:50;;;;;;;;;;;;;;;-144.99;63.44;52452.16;5025517;28;20478;-70
2023/02/02 09:43:25;;;;;;;;;;;;;;;-144.99;62.69;52435.88;5023986;28;20002;-70
2023/02/02 09:45:55;;;;;;;;;;;;;;;-144.99;61.82;52444.03;5025525;28;20051;-70
2023/02/02 09:48:26;;;;;;;;;;;;;;;-144.99;59.78;52439.94;5026819;28;19998;-70
2023/02/02 09:50:54;;;;;;;;;;;;;;;-144.99;59.39;52425.66;5025743;28;19994;-70
2023/02/02 09:53:28;;;;;;;;;;;;;;;-144.99;58.32;52419.56;5025764;28;19949;-70
2023/02/02 09:55:56;;;;;;;;;;;;;;;-144.99;57.08;52419.56;5025940;28;20396;-69
2023/02/02 09:58:26;;;;;;;;;;;;;;;-144.99;56.25;52388.97;5025633;28;20025;-71
2023/02/02 10:00:55;;;;;;;;;;;;;;;-144.99;55.64;52415.47;5026322;28;20439;-70
2023/02/02 10:03:25;;;;;;;;;;;;;;;-144.99;55.06;52403.25;5025523;28;20025;-71
2023/02/02 10:05:54;;;;;;;;;;;;;;;-144.99;53.51;52415.47;5025667;28;20210;-70
2023/02/02 10:08:25;;;;;;;;;;;;;;;-144.99;53.43;52370.63;5025549;28;20475;-70
2023/02/02 10:10:53;;;;;;;;;;;;;;;-144.99;52.56;52356.38;5025768;28;19963;-70
2023/02/02 10:13:24;;;;;;;;;;;;;;;-144.99;50.65;52370.63;5027375;28;20107;-71
2023/02/02 10:15:52;;;;;;;;;;;;;;;-144.99;49.46;52354.34;5031304;28;19943;-70
2023/02/02 10:18:21;;;;;;;;;;;;;;;-144.99;48.48;52378.78;5026051;28;19943;-70
2023/02/02 10:20:50;;;;;;;;;;;;;;;-144.99;48.48;52391.03;5029829;28;19966;-70
2023/02/02 10:23:22;;;;;;;;;;;;;;;-144.99;48.86;52342.09;5025826;28;20020;-70
2023/02/02 10:25:54;;;;;;;;;;;;;;;-144.99;47.58;52378.78;5029915;28;19998;-70
2023/02/02 10:28:27;;;;;;;;;;;;;;;-144.99;47.93;52403.25;5026478;28;20021;-70
2023/02/02 10:30:59;;;;;;;;;;;;;;;-144.99;48.01;52403.25;5025597;28;20455;-70
2023/02/02 10:33:33;;;;;;;;;;;;;;;-144.99;49.31;52452.16;5025679;28;20402;-70
2023/02/02 10:36:04;;;;;;;;;;;;;;;-144.99;50.63;52444.03;5025985;28;20012;-70
2023/02/02 10:38:38;;;;;;;;;;;;;;;-144.99;51.63;52472.56;5025639;28;19938;-70
2023/02/02 10:41:11;;;;;;;;;;;;;;;-144.99;52.13;52519.44;5025469;28;20021;-70
2023/02/02 10:43:48;;;;;;;;;;;;;;;-144.99;52.07;52456.25;5024101;28;20426;-70
2023/02/02 10:46:17;;;;;;;;;;;;;;;-144.99;52.35;52484.78;5025248;28;19929;-70
2023/02/02 10:48:45;;;;;;;;;;;;;;;-144.99;52.87;52460.31;5027515;28;20409;-69
2023/02/02 10:51:17;;;;;;;;;;;;;;;-144.99;54.01;52344.16;5028464;28;19991;-70
2023/02/02 10:53:49;;;;;;;;;;;;;;;-144.99;52.13;52480.72;5025018;28;19964;-70
2023/02/02 10:56:18;;;;;;;;;;;;;;;-144.99;51.12;52305.41;5025455;28;19932;-70
2023/02/02 10:58:50;;;;;;;;;;;;;;;-144.99;49.73;52429.75;5025017;28;20176;-70
2023/02/02 11:01:21;;;;;;;;;;;;;;;-144.99;47.97;52268.72;5027563;28;19928;-70
2023/02/02 11:03:48;;;;;;;;;;;;;;;-144.99;46.55;52240.19;5025494;28;20289;-70
2023/02/02 11:09:12;;;;;;;;;;;;;;;-144.99;42.95;52234.09;4988407;28;19983;-70
2023/02/02 11:11:40;;;;;;;;;;;;;;;-144.99;42.62;52219.81;5024986;28;20454;-70
2023/02/02 11:14:13;;;;;;;;;;;;;;;-144.99;42.14;52256.50;5025406;28;19932;-70
2023/02/02 11:16:40;;;;;;;;;;;;;;;-144.99;42.09;52350.25;5029153;28;20001;-71
2023/02/02 11:19:21;;;;;;;;;;;;;;;-144.99;42.15;52362.50;5028941;28;20274;-71
2023/02/02 11:21:48;;;;;;;;;;;;;;;-144.99;43.21;52378.78;5032109;28;20168;-70
2023/02/02 11:24:21;;;;;;;;;;;;;;;-144.99;44.81;52407.31;5028741;28;20358;-71
2023/02/02 11:26:50;;;;;;;;;;;;;;;-144.99;46.06;52456.25;5034775;28;19929;-71
2023/02/02 11:29:19;;;;;;;;;;;;;;;-144.99;46.68;52435.88;5028550;28;20449;-70
2023/02/02 11:31:46;;;;;;;;;;;;;;;-144.99;47.26;52472.56;5028863;28;19936;-70
2023/02/02 11:34:17;;;;;;;;;;;;;;;-144.99;47.54;52289.13;5028926;28;19925;-70
2023/02/02 11:36:57;;;;;;;;;;;;;;;-144.99;45.70;52403.25;5024832;28;19929;-70
2023/02/02 11:39:25;;;;;;;;;;;;;;;-144.99;45.04;52297.25;5031768;28;19983;-70
2023/02/02 11:41:51;;;;;;;;;;;;;;;-144.99;44.10;52313.56;5028212;28;20283;-70
2023/02/02 11:44:24;;;;;;;;;;;;;;;-144.99;43.74;52350.25;5026168;28;20016;-71
2023/02/02 11:46:51;;;;;;;;;;;;;;;-144.99;43.74;52378.78;5028656;28;19957;-71
2023/02/02 11:49:19;;;;;;;;;;;;;;;-144.99;43.98;52289.13;5028335;28;19972;-71
2023/02/02 11:51:55;;;;;;;;;;;;;;;-144.99;44.36;52395.09;5028051;28;19975;-71
2023/02/02 11:54:24;;;;;;;;;;;;;;;-144.99;44.44;52378.78;5027788;28;19998;-70
2023/02/02 11:56:53;;;;;;;;;;;;;;;-144.99;43.99;52244.28;5028427;28;19994;-70
2023/02/02 11:59:31;;;;;;;;;;;;;;;-144.99;42.60;52376.75;5027638;28;20009;-70
2023/02/02 12:02:16;;;;;;;;;;;;;;;-144.99;43.03;52403.25;5035994;28;20002;-70
2023/02/02 12:04:42;;;;;;;;;;;;;;;-144.99;43.96;52431.78;5019792;28;20076;-71
2023/02/02 12:07:18;;;;;;;;;;;;;;;-144.99;44.78;52476.63;5028383;28;19983;-71
2023/02/02 12:09:45;;;;;;;;;;;;;;;-144.99;45.92;52464.41;5027277;28;19929;-71
2023/02/02 12:12:19;;;;;;;;;;;;;;;-144.99;46.45;52474.59;5027372;28;20606;-71
2023/02/02 12:14:51;;;;;;;;;;;;;;;-144.99;45.06;52378.78;5027666;28;20337;-71
2023/02/02 12:17:25;;;;;;;;;;;;;;;-144.99;45.07;52423.63;5029765;28;20040;-71
2023/02/02 12:20:01;;;;;;;;;;;;;;;-144.99;44.95;52444.03;5027992;28;20010;-70
2023/02/02 12:22:35;;;;;;;;;;;;;;;-144.99;45.54;52439.94;5035251;28;20263;-70
2023/02/02 12:25:08;;;;;;;;;;;;;;;-144.99;45.86;52289.13;5030130;28;20015;-71
2023/02/02 12:27:39;;;;;;;;;;;;;;;-144.99;44.32;52280.97;5035081;28;19955;-70
2023/02/02 12:30:24;;;;;;;;;;;;;;;-144.99;43.37;52391.03;5028351;28;19960;-71
2023/02/02 12:33:06;;;;;;;;;;;;;;;-144.99;42.58;52354.34;5027752;28;20024;-71
2023/02/02 12:35:41;;;;;;;;;;;;;;;-144.99;41.76;52366.56;5027555;28;20025;-71
2023/02/02 12:38:16;;;;;;;;;;;;;;;-144.99;42.31;52407.31;5027953;28;19925;-71
2023/02/02 12:40:51;;;;;;;;;;;;;;;-144.99;43.18;52391.03;5027146;28;20009;-71
2023/02/02 12:43:23;;;;;;;;;;;;;;;-144.99;43.17;52358.41;5024646;28;20004;-71